sensor_id;sensor_type;location;lat;lon;timestamp;P1;durP1;ratioP1;P2;durP2;ratioP2
22334;SDS011;11335;43.848;25.958;2023-07-20T00:02:23;68.10;;;8.60;;
22334;SDS011;11335;43.848;25.958;2023-07-20T00:05:09;31.65;;;6.35;;
22334;SDS011;11335;43.848;25.958;2023-07-20T00:07:55;27.30;;;6.85;;
22334;SDS011;11335;43.848;25.958;2023-07-20T00:10:42;37.47;;;6.53;;
22334;SDS011;11335;43.848;25.958;2023-07-20T00:13:28;28.17;;;6.65;;
22334;SDS011;11335;43.848;25.958;2023-07-20T00:16:13;23.90;;;5.90;;
22334;SDS011;11335;43.848;25.958;2023-07-20T00:18:59;30.58;;;6.22;;
22334;SDS011;11335;43.848;25.958;2023-07-20T00:21:45;20.17;;;6.40;;
22334;SDS011;11335;43.848;25.958;2023-07-20T00:24:31;26.10;;;6.50;;
22334;SDS011;11335;43.848;25.958;2023-07-20T00:27:17;26.30;;;7.93;;
22334;SDS011;11335;43.848;25.958;2023-07-20T00:30:03;26.30;;;8.27;;
22334;SDS011;11335;43.848;25.958;2023-07-20T00:32:49;20.52;;;8.30;;
22334;SDS011;11335;43.848;25.958;2023-07-20T00:35:35;16.00;;;7.88;;
22334;SDS011;11335;43.848;25.958;2023-07-20T00:38:21;16.73;;;7.63;;
22334;SDS011;11335;43.848;25.958;2023-07-20T00:41:07;16.73;;;7.40;;
22334;SDS011;11335;43.848;25.958;2023-07-20T00:43:53;17.90;;;7.80;;
22334;SDS011;11335;43.848;25.958;2023-07-20T00:46:39;12.85;;;7.45;;
22334;SDS011;11335;43.848;25.958;2023-07-20T00:49:26;18.15;;;7.88;;
22334;SDS011;11335;43.848;25.958;2023-07-20T00:52:13;17.25;;;7.13;;
22334;SDS011;11335;43.848;25.958;2023-07-20T00:54:59;17.15;;;6.68;;
22334;SDS011;11335;43.848;25.958;2023-07-20T00:57:46;18.00;;;6.97;;
22334;SDS011;11335;43.848;25.958;2023-07-20T01:00:32;12.85;;;6.30;;
22334;SDS011;11335;43.848;25.958;2023-07-20T01:03:18;12.65;;;5.57;;
22334;SDS011;11335;43.848;25.958;2023-07-20T01:09:34;11.32;;;4.80;;
22334;SDS011;11335;43.848;25.958;2023-07-20T01:12:33;14.43;;;5.35;;
22334;SDS011;11335;43.848;25.958;2023-07-20T01:15:26;15.38;;;5.38;;
22334;SDS011;11335;43.848;25.958;2023-07-20T01:18:11;14.43;;;4.72;;
22334;SDS011;11335;43.848;25.958;2023-07-20T01:21:06;12.48;;;4.63;;
22334;SDS011;11335;43.848;25.958;2023-07-20T01:30:01;13.70;;;4.55;;
22334;SDS011;11335;43.848;25.958;2023-07-20T01:32:59;14.48;;;4.60;;
22334;SDS011;11335;43.848;25.958;2023-07-20T01:35:51;12.65;;;5.45;;
22334;SDS011;11335;43.848;25.958;2023-07-20T01:38:40;8.73;;;4.68;;
22334;SDS011;11335;43.848;25.958;2023-07-20T01:41:26;14.23;;;4.68;;
22334;SDS011;11335;43.848;25.958;2023-07-20T01:44:12;8.68;;;4.50;;
22334;SDS011;11335;43.848;25.958;2023-07-20T01:46:58;12.50;;;4.45;;
22334;SDS011;11335;43.848;25.958;2023-07-20T01:49:44;13.60;;;3.97;;
22334;SDS011;11335;43.848;25.958;2023-07-20T01:52:30;15.00;;;4.30;;
22334;SDS011;11335;43.848;25.958;2023-07-20T01:55:16;17.10;;;5.00;;
22334;SDS011;11335;43.848;25.958;2023-07-20T01:58:01;14.02;;;4.50;;
22334;SDS011;11335;43.848;25.958;2023-07-20T02:00:48;15.65;;;4.22;;
22334;SDS011;11335;43.848;25.958;2023-07-20T02:03:34;13.80;;;4.50;;
22334;SDS011;11335;43.848;25.958;2023-07-20T02:06:21;14.93;;;4.78;;
22334;SDS011;11335;43.848;25.958;2023-07-20T02:09:06;11.85;;;5.05;;
22334;SDS011;11335;43.848;25.958;2023-07-20T02:11:52;11.25;;;5.47;;
22334;SDS011;11335;43.848;25.958;2023-07-20T02:14:38;16.95;;;4.63;;
22334;SDS011;11335;43.848;25.958;2023-07-20T02:17:24;19.42;;;5.07;;
22334;SDS011;11335;43.848;25.958;2023-07-20T02:20:10;9.20;;;4.50;;
22334;SDS011;11335;43.848;25.958;2023-07-20T02:22:56;12.93;;;4.65;;
22334;SDS011;11335;43.848;25.958;2023-07-20T02:25:41;10.77;;;3.92;;
22334;SDS011;11335;43.848;25.958;2023-07-20T02:28:27;10.60;;;3.90;;
22334;SDS011;11335;43.848;25.958;2023-07-20T02:31:14;9.40;;;3.80;;
22334;SDS011;11335;43.848;25.958;2023-07-20T02:34:00;10.45;;;3.75;;
22334;SDS011;11335;43.848;25.958;2023-07-20T02:36:45;7.05;;;3.70;;
22334;SDS011;11335;43.848;25.958;2023-07-20T02:39:31;11.77;;;4.18;;
22334;SDS011;11335;43.848;25.958;2023-07-20T02:42:17;6.35;;;3.78;;
22334;SDS011;11335;43.848;25.958;2023-07-20T02:45:03;9.60;;;3.33;;
22334;SDS011;11335;43.848;25.958;2023-07-20T02:47:49;12.25;;;3.63;;
22334;SDS011;11335;43.848;25.958;2023-07-20T02:50:35;8.45;;;3.63;;
22334;SDS011;11335;43.848;25.958;2023-07-20T02:53:21;7.78;;;3.10;;
22334;SDS011;11335;43.848;25.958;2023-07-20T02:56:07;7.82;;;3.47;;
22334;SDS011;11335;43.848;25.958;2023-07-20T02:58:53;9.40;;;3.50;;
22334;SDS011;11335;43.848;25.958;2023-07-20T03:01:39;10.65;;;3.70;;
22334;SDS011;11335;43.848;25.958;2023-07-20T03:04:27;14.02;;;3.92;;
22334;SDS011;11335;43.848;25.958;2023-07-20T03:07:13;12.60;;;4.03;;
22334;SDS011;11335;43.848;25.958;2023-07-20T03:09:59;9.13;;;3.45;;
22334;SDS011;11335;43.848;25.958;2023-07-20T03:12:45;13.73;;;3.80;;
22334;SDS011;11335;43.848;25.958;2023-07-20T03:15:30;7.82;;;3.60;;
22334;SDS011;11335;43.848;25.958;2023-07-20T03:18:16;9.32;;;3.58;;
22334;SDS011;11335;43.848;25.958;2023-07-20T03:21:02;8.77;;;3.67;;
22334;SDS011;11335;43.848;25.958;2023-07-20T03:23:47;7.13;;;3.70;;
22334;SDS011;11335;43.848;25.958;2023-07-20T03:26:34;12.00;;;3.90;;
22334;SDS011;11335;43.848;25.958;2023-07-20T03:29:20;9.32;;;3.72;;
22334;SDS011;11335;43.848;25.958;2023-07-20T03:32:05;9.80;;;3.45;;
22334;SDS011;11335;43.848;25.958;2023-07-20T03:34:51;12.30;;;3.92;;
22334;SDS011;11335;43.848;25.958;2023-07-20T03:37:37;9.25;;;3.72;;
22334;SDS011;11335;43.848;25.958;2023-07-20T03:40:23;7.53;;;3.38;;
22334;SDS011;11335;43.848;25.958;2023-07-20T03:43:09;9.43;;;3.40;;
22334;SDS011;11335;43.848;25.958;2023-07-20T03:45:55;7.57;;;2.95;;
22334;SDS011;11335;43.848;25.958;2023-07-20T03:48:42;8.82;;;3.15;;
22334;SDS011;11335;43.848;25.958;2023-07-20T03:51:27;5.57;;;3.40;;
22334;SDS011;11335;43.848;25.958;2023-07-20T03:54:13;10.23;;;3.10;;
22334;SDS011;11335;43.848;25.958;2023-07-20T03:56:59;7.78;;;3.22;;
22334;SDS011;11335;43.848;25.958;2023-07-20T03:59:46;12.85;;;3.30;;
22334;SDS011;11335;43.848;25.958;2023-07-20T04:02:31;7.47;;;3.20;;
22334;SDS011;11335;43.848;25.958;2023-07-20T04:05:17;7.40;;;2.85;;
22334;SDS011;11335;43.848;25.958;2023-07-20T04:08:03;11.90;;;3.45;;
22334;SDS011;11335;43.848;25.958;2023-07-20T04:10:49;9.57;;;3.67;;
22334;SDS011;11335;43.848;25.958;2023-07-20T04:13:35;8.32;;;3.20;;
22334;SDS011;11335;43.848;25.958;2023-07-20T04:16:21;6.88;;;3.20;;
22334;SDS011;11335;43.848;25.958;2023-07-20T04:19:07;9.75;;;3.53;;
22334;SDS011;11335;43.848;25.958;2023-07-20T04:21:53;8.73;;;3.20;;
22334;SDS011;11335;43.848;25.958;2023-07-20T04:24:39;6.35;;;2.97;;
22334;SDS011;11335;43.848;25.958;2023-07-20T04:27:25;10.65;;;3.50;;
22334;SDS011;11335;43.848;25.958;2023-07-20T04:30:11;8.80;;;3.63;;
22334;SDS011;11335;43.848;25.958;2023-07-20T04:32:58;9.43;;;3.25;;
22334;SDS011;11335;43.848;25.958;2023-07-20T04:35:53;9.32;;;3.28;;
22334;SDS011;11335;43.848;25.958;2023-07-20T04:38:39;9.40;;;4.05;;
22334;SDS011;11335;43.848;25.958;2023-07-20T04:41:25;11.02;;;4.00;;
22334;SDS011;11335;43.848;25.958;2023-07-20T04:44:12;8.75;;;3.63;;
22334;SDS011;11335;43.848;25.958;2023-07-20T04:46:59;8.30;;;3.78;;
22334;SDS011;11335;43.848;25.958;2023-07-20T04:49:45;10.85;;;3.67;;
22334;SDS011;11335;43.848;25.958;2023-07-20T04:52:30;7.65;;;3.35;;
22334;SDS011;11335;43.848;25.958;2023-07-20T04:55:16;10.48;;;3.60;;
22334;SDS011;11335;43.848;25.958;2023-07-20T04:58:02;7.22;;;3.55;;
22334;SDS011;11335;43.848;25.958;2023-07-20T05:00:49;7.43;;;3.67;;
22334;SDS011;11335;43.848;25.958;2023-07-20T05:03:35;6.43;;;3.47;;
22334;SDS011;11335;43.848;25.958;2023-07-20T05:06:21;7.05;;;3.42;;
22334;SDS011;11335;43.848;25.958;2023-07-20T05:09:06;7.88;;;3.40;;
22334;SDS011;11335;43.848;25.958;2023-07-20T05:11:53;10.45;;;3.55;;
22334;SDS011;11335;43.848;25.958;2023-07-20T05:14:38;9.27;;;3.63;;
22334;SDS011;11335;43.848;25.958;2023-07-20T05:17:24;11.15;;;3.83;;
22334;SDS011;11335;43.848;25.958;2023-07-20T05:20:10;7.70;;;3.80;;
22334;SDS011;11335;43.848;25.958;2023-07-20T05:22:57;9.60;;;4.03;;
22334;SDS011;11335;43.848;25.958;2023-07-20T05:25:43;8.00;;;4.25;;
22334;SDS011;11335;43.848;25.958;2023-07-20T05:28:29;7.35;;;4.20;;
22334;SDS011;11335;43.848;25.958;2023-07-20T05:31:14;12.07;;;4.38;;
22334;SDS011;11335;43.848;25.958;2023-07-20T05:34:00;11.65;;;5.25;;
22334;SDS011;11335;43.848;25.958;2023-07-20T05:36:46;13.15;;;4.78;;
22334;SDS011;11335;43.848;25.958;2023-07-20T05:39:32;9.55;;;4.40;;
22334;SDS011;11335;43.848;25.958;2023-07-20T05:42:18;11.75;;;4.13;;
22334;SDS011;11335;43.848;25.958;2023-07-20T05:45:04;12.73;;;4.63;;
22334;SDS011;11335;43.848;25.958;2023-07-20T05:47:50;12.30;;;4.85;;
22334;SDS011;11335;43.848;25.958;2023-07-20T05:50:37;7.95;;;4.82;;
22334;SDS011;11335;43.848;25.958;2023-07-20T05:53:23;11.13;;;4.75;;
22334;SDS011;11335;43.848;25.958;2023-07-20T05:56:09;12.45;;;5.30;;
22334;SDS011;11335;43.848;25.958;2023-07-20T05:58:55;10.85;;;5.15;;
22334;SDS011;11335;43.848;25.958;2023-07-20T06:01:41;7.28;;;4.40;;
22334;SDS011;11335;43.848;25.958;2023-07-20T06:04:27;8.15;;;4.55;;
22334;SDS011;11335;43.848;25.958;2023-07-20T06:07:13;10.32;;;4.50;;
22334;SDS011;11335;43.848;25.958;2023-07-20T06:09:58;9.75;;;4.80;;
22334;SDS011;11335;43.848;25.958;2023-07-20T06:12:44;10.65;;;4.90;;
22334;SDS011;11335;43.848;25.958;2023-07-20T06:15:33;11.65;;;5.00;;
22334;SDS011;11335;43.848;25.958;2023-07-20T06:18:23;10.57;;;4.95;;
22334;SDS011;11335;43.848;25.958;2023-07-20T06:21:09;10.18;;;4.95;;
22334;SDS011;11335;43.848;25.958;2023-07-20T06:23:55;12.40;;;4.78;;
22334;SDS011;11335;43.848;25.958;2023-07-20T06:26:41;11.02;;;4.97;;
22334;SDS011;11335;43.848;25.958;2023-07-20T06:29:27;10.43;;;4.75;;
22334;SDS011;11335;43.848;25.958;2023-07-20T06:32:12;10.48;;;5.28;;
22334;SDS011;11335;43.848;25.958;2023-07-20T06:34:59;7.40;;;4.60;;
22334;SDS011;11335;43.848;25.958;2023-07-20T06:37:44;10.55;;;5.30;;
22334;SDS011;11335;43.848;25.958;2023-07-20T06:40:30;11.48;;;5.68;;
22334;SDS011;11335;43.848;25.958;2023-07-20T06:43:16;6.95;;;4.55;;
22334;SDS011;11335;43.848;25.958;2023-07-20T06:46:02;9.90;;;5.22;;
22334;SDS011;11335;43.848;25.958;2023-07-20T06:48:47;10.45;;;4.60;;
22334;SDS011;11335;43.848;25.958;2023-07-20T06:51:33;10.00;;;4.60;;
22334;SDS011;11335;43.848;25.958;2023-07-20T06:54:19;9.40;;;4.22;;
22334;SDS011;11335;43.848;25.958;2023-07-20T06:57:05;11.73;;;4.47;;
22334;SDS011;11335;43.848;25.958;2023-07-20T06:59:51;7.10;;;4.10;;
22334;SDS011;11335;43.848;25.958;2023-07-20T07:02:36;7.22;;;4.30;;
22334;SDS011;11335;43.848;25.958;2023-07-20T07:05:22;8.23;;;4.03;;
22334;SDS011;11335;43.848;25.958;2023-07-20T07:08:08;9.93;;;4.97;;
22334;SDS011;11335;43.848;25.958;2023-07-20T07:10:54;8.02;;;4.50;;
22334;SDS011;11335;43.848;25.958;2023-07-20T07:13:40;7.85;;;5.15;;
22334;SDS011;11335;43.848;25.958;2023-07-20T07:16:25;10.40;;;4.97;;
22334;SDS011;11335;43.848;25.958;2023-07-20T07:19:11;10.82;;;5.28;;
22334;SDS011;11335;43.848;25.958;2023-07-20T07:21:57;8.15;;;5.68;;
22334;SDS011;11335;43.848;25.958;2023-07-20T07:24:43;8.15;;;5.50;;
22334;SDS011;11335;43.848;25.958;2023-07-20T07:27:28;8.65;;;5.18;;
22334;SDS011;11335;43.848;25.958;2023-07-20T07:30:14;11.43;;;5.50;;
22334;SDS011;11335;43.848;25.958;2023-07-20T07:33:00;8.73;;;5.70;;
22334;SDS011;11335;43.848;25.958;2023-07-20T07:35:46;10.30;;;5.43;;
22334;SDS011;11335;43.848;25.958;2023-07-20T07:38:32;8.25;;;5.43;;
22334;SDS011;11335;43.848;25.958;2023-07-20T07:41:18;8.18;;;5.40;;
22334;SDS011;11335;43.848;25.958;2023-07-20T07:44:03;10.73;;;5.32;;
22334;SDS011;11335;43.848;25.958;2023-07-20T07:46:50;10.13;;;6.18;;
22334;SDS011;11335;43.848;25.958;2023-07-20T07:49:36;7.85;;;5.10;;
22334;SDS011;11335;43.848;25.958;2023-07-20T07:52:21;8.43;;;5.38;;
22334;SDS011;11335;43.848;25.958;2023-07-20T07:55:07;12.10;;;5.40;;
22334;SDS011;11335;43.848;25.958;2023-07-20T07:57:53;8.38;;;5.55;;
22334;SDS011;11335;43.848;25.958;2023-07-20T08:00:39;8.70;;;5.60;;
22334;SDS011;11335;43.848;25.958;2023-07-20T08:03:25;7.28;;;5.00;;
22334;SDS011;11335;43.848;25.958;2023-07-20T08:06:11;9.85;;;5.32;;
22334;SDS011;11335;43.848;25.958;2023-07-20T08:08:57;10.20;;;5.60;;
22334;SDS011;11335;43.848;25.958;2023-07-20T08:11:43;11.23;;;6.60;;
22334;SDS011;11335;43.848;25.958;2023-07-20T08:14:28;8.93;;;5.25;;
22334;SDS011;11335;43.848;25.958;2023-07-20T08:17:14;7.20;;;5.10;;
22334;SDS011;11335;43.848;25.958;2023-07-20T08:20:00;8.27;;;5.07;;
22334;SDS011;11335;43.848;25.958;2023-07-20T08:22:45;8.32;;;5.18;;
22334;SDS011;11335;43.848;25.958;2023-07-20T08:25:31;11.40;;;5.25;;
22334;SDS011;11335;43.848;25.958;2023-07-20T08:28:17;10.43;;;5.53;;
22334;SDS011;11335;43.848;25.958;2023-07-20T08:31:05;8.40;;;5.18;;
22334;SDS011;11335;43.848;25.958;2023-07-20T08:33:51;8.93;;;5.45;;
22334;SDS011;11335;43.848;25.958;2023-07-20T08:36:36;7.82;;;5.28;;
22334;SDS011;11335;43.848;25.958;2023-07-20T08:39:22;6.53;;;4.90;;
22334;SDS011;11335;43.848;25.958;2023-07-20T08:42:09;10.43;;;5.13;;
22334;SDS011;11335;43.848;25.958;2023-07-20T08:44:55;6.65;;;4.88;;
22334;SDS011;11335;43.848;25.958;2023-07-20T08:47:42;13.10;;;5.20;;
22334;SDS011;11335;43.848;25.958;2023-07-20T08:50:31;9.07;;;5.00;;
22334;SDS011;11335;43.848;25.958;2023-07-20T08:53:17;9.40;;;4.68;;
22334;SDS011;11335;43.848;25.958;2023-07-20T08:56:03;10.15;;;5.20;;
22334;SDS011;11335;43.848;25.958;2023-07-20T08:58:49;8.68;;;4.80;;
22334;SDS011;11335;43.848;25.958;2023-07-20T09:01:37;7.25;;;4.85;;
22334;SDS011;11335;43.848;25.958;2023-07-20T09:04:24;10.52;;;4.78;;
22334;SDS011;11335;43.848;25.958;2023-07-20T09:07:10;9.02;;;4.43;;
22334;SDS011;11335;43.848;25.958;2023-07-20T09:09:57;8.85;;;4.47;;
22334;SDS011;11335;43.848;25.958;2023-07-20T09:12:43;9.85;;;4.25;;
22334;SDS011;11335;43.848;25.958;2023-07-20T09:15:29;8.90;;;4.53;;
22334;SDS011;11335;43.848;25.958;2023-07-20T09:18:25;10.88;;;4.70;;
22334;SDS011;11335;43.848;25.958;2023-07-20T09:21:12;15.70;;;5.05;;
22334;SDS011;11335;43.848;25.958;2023-07-20T09:24:02;10.18;;;4.40;;
22334;SDS011;11335;43.848;25.958;2023-07-20T09:26:48;6.55;;;4.32;;
22334;SDS011;11335;43.848;25.958;2023-07-20T09:29:39;7.63;;;3.83;;
22334;SDS011;11335;43.848;25.958;2023-07-20T09:32:40;9.07;;;4.97;;
22334;SDS011;11335;43.848;25.958;2023-07-20T09:35:32;12.73;;;4.80;;
22334;SDS011;11335;43.848;25.958;2023-07-20T09:38:18;6.93;;;4.20;;
22334;SDS011;11335;43.848;25.958;2023-07-20T09:41:05;8.57;;;4.63;;
22334;SDS011;11335;43.848;25.958;2023-07-20T09:43:51;11.10;;;4.18;;
22334;SDS011;11335;43.848;25.958;2023-07-20T09:46:41;7.82;;;4.45;;
22334;SDS011;11335;43.848;25.958;2023-07-20T09:49:30;9.85;;;4.57;;
22334;SDS011;11335;43.848;25.958;2023-07-20T09:52:16;12.77;;;4.03;;
22334;SDS011;11335;43.848;25.958;2023-07-20T09:55:03;10.05;;;4.97;;
22334;SDS011;11335;43.848;25.958;2023-07-20T09:57:49;8.25;;;4.60;;
22334;SDS011;11335;43.848;25.958;2023-07-20T10:00:35;9.88;;;4.55;;
22334;SDS011;11335;43.848;25.958;2023-07-20T10:03:26;14.30;;;4.78;;
22334;SDS011;11335;43.848;25.958;2023-07-20T10:06:15;9.15;;;4.43;;
22334;SDS011;11335;43.848;25.958;2023-07-20T10:09:06;13.65;;;4.93;;
22334;SDS011;11335;43.848;25.958;2023-07-20T10:11:54;9.20;;;4.75;;
22334;SDS011;11335;43.848;25.958;2023-07-20T10:14:44;8.57;;;4.78;;
22334;SDS011;11335;43.848;25.958;2023-07-20T10:21:00;8.85;;;4.35;;
22334;SDS011;11335;43.848;25.958;2023-07-20T10:23:46;8.82;;;4.80;;
22334;SDS011;11335;43.848;25.958;2023-07-20T10:26:32;10.38;;;4.85;;
22334;SDS011;11335;43.848;25.958;2023-07-20T10:29:18;7.57;;;4.60;;
22334;SDS011;11335;43.848;25.958;2023-07-20T10:32:04;10.43;;;4.40;;
22334;SDS011;11335;43.848;25.958;2023-07-20T10:34:51;10.23;;;4.75;;
22334;SDS011;11335;43.848;25.958;2023-07-20T10:37:47;11.55;;;4.40;;
22334;SDS011;11335;43.848;25.958;2023-07-20T10:40:38;10.65;;;4.25;;
22334;SDS011;11335;43.848;25.958;2023-07-20T10:43:24;5.03;;;4.15;;
22334;SDS011;11335;43.848;25.958;2023-07-20T10:46:11;8.73;;;4.38;;
22334;SDS011;11335;43.848;25.958;2023-07-20T10:48:59;10.07;;;4.47;;
22334;SDS011;11335;43.848;25.958;2023-07-20T10:52:12;7.13;;;4.45;;
22334;SDS011;11335;43.848;25.958;2023-07-20T10:54:59;14.30;;;4.50;;
22334;SDS011;11335;43.848;25.958;2023-07-20T11:01:17;8.32;;;4.10;;
22334;SDS011;11335;43.848;25.958;2023-07-20T11:04:04;8.48;;;4.20;;
22334;SDS011;11335;43.848;25.958;2023-07-20T11:06:56;9.25;;;4.40;;
22334;SDS011;11335;43.848;25.958;2023-07-20T11:09:42;7.55;;;4.18;;
22334;SDS011;11335;43.848;25.958;2023-07-20T11:12:28;9.10;;;4.10;;
22334;SDS011;11335;43.848;25.958;2023-07-20T11:15:13;10.82;;;4.55;;
22334;SDS011;11335;43.848;25.958;2023-07-20T11:18:11;15.38;;;4.80;;
22334;SDS011;11335;43.848;25.958;2023-07-20T11:20:58;9.30;;;4.95;;
22334;SDS011;11335;43.848;25.958;2023-07-20T11:23:44;7.20;;;4.40;;
22334;SDS011;11335;43.848;25.958;2023-07-20T11:26:39;11.43;;;4.80;;
22334;SDS011;11335;43.848;25.958;2023-07-20T11:29:25;11.95;;;5.53;;
22334;SDS011;11335;43.848;25.958;2023-07-20T11:32:12;11.82;;;7.35;;
22334;SDS011;11335;43.848;25.958;2023-07-20T11:34:58;15.50;;;7.20;;
22334;SDS011;11335;43.848;25.958;2023-07-20T11:37:44;10.70;;;5.70;;
22334;SDS011;11335;43.848;25.958;2023-07-20T11:40:30;10.18;;;4.90;;
22334;SDS011;11335;43.848;25.958;2023-07-20T11:43:16;14.70;;;5.90;;
22334;SDS011;11335;43.848;25.958;2023-07-20T11:46:02;13.23;;;7.07;;
22334;SDS011;11335;43.848;25.958;2023-07-20T11:48:55;14.88;;;6.47;;
22334;SDS011;11335;43.848;25.958;2023-07-20T11:51:42;13.35;;;5.28;;
22334;SDS011;11335;43.848;25.958;2023-07-20T11:54:28;11.38;;;5.10;;
22334;SDS011;11335;43.848;25.958;2023-07-20T11:57:20;8.23;;;4.78;;
22334;SDS011;11335;43.848;25.958;2023-07-20T12:00:06;11.60;;;5.20;;
22334;SDS011;11335;43.848;25.958;2023-07-20T12:02:56;15.85;;;5.53;;
22334;SDS011;11335;43.848;25.958;2023-07-20T12:05:42;11.35;;;5.90;;
22334;SDS011;11335;43.848;25.958;2023-07-20T12:08:29;12.80;;;5.20;;
22334;SDS011;11335;43.848;25.958;2023-07-20T12:11:29;8.38;;;4.78;;
22334;SDS011;11335;43.848;25.958;2023-07-20T12:14:25;7.75;;;4.43;;
22334;SDS011;11335;43.848;25.958;2023-07-20T12:17:11;11.25;;;4.53;;
22334;SDS011;11335;43.848;25.958;2023-07-20T12:19:57;12.00;;;4.80;;
22334;SDS011;11335;43.848;25.958;2023-07-20T12:22:44;10.80;;;4.68;;
22334;SDS011;11335;43.848;25.958;2023-07-20T12:25:33;10.30;;;4.50;;
22334;SDS011;11335;43.848;25.958;2023-07-20T12:28:31;7.60;;;4.18;;
22334;SDS011;11335;43.848;25.958;2023-07-20T12:31:16;9.00;;;3.97;;
22334;SDS011;11335;43.848;25.958;2023-07-20T12:34:02;12.63;;;3.78;;
22334;SDS011;11335;43.848;25.958;2023-07-20T12:36:48;9.65;;;3.85;;
22334;SDS011;11335;43.848;25.958;2023-07-20T12:39:34;10.77;;;3.90;;
22334;SDS011;11335;43.848;25.958;2023-07-20T12:42:20;6.22;;;3.35;;
22334;SDS011;11335;43.848;25.958;2023-07-20T12:45:06;7.32;;;3.58;;
22334;SDS011;11335;43.848;25.958;2023-07-20T12:47:52;7.53;;;3.40;;
22334;SDS011;11335;43.848;25.958;2023-07-20T12:50:38;9.27;;;3.33;;
22334;SDS011;11335;43.848;25.958;2023-07-20T12:53:24;12.75;;;3.80;;
22334;SDS011;11335;43.848;25.958;2023-07-20T12:56:10;11.63;;;3.90;;
22334;SDS011;11335;43.848;25.958;2023-07-20T12:58:55;9.23;;;4.10;;
22334;SDS011;11335;43.848;25.958;2023-07-20T13:01:41;7.90;;;3.60;;
22334;SDS011;11335;43.848;25.958;2023-07-20T13:04:29;9.27;;;3.63;;
22334;SDS011;11335;43.848;25.958;2023-07-20T13:07:15;12.48;;;3.80;;
22334;SDS011;11335;43.848;25.958;2023-07-20T13:10:01;6.80;;;3.38;;
22334;SDS011;11335;43.848;25.958;2023-07-20T13:12:48;8.18;;;3.45;;
22334;SDS011;11335;43.848;25.958;2023-07-20T13:15:40;6.20;;;3.25;;
22334;SDS011;11335;43.848;25.958;2023-07-20T13:18:27;6.90;;;2.97;;
22334;SDS011;11335;43.848;25.958;2023-07-20T13:21:13;6.85;;;3.17;;
22334;SDS011;11335;43.848;25.958;2023-07-20T13:23:59;9.43;;;3.30;;
22334;SDS011;11335;43.848;25.958;2023-07-20T13:26:45;9.93;;;3.38;;
22334;SDS011;11335;43.848;25.958;2023-07-20T13:29:31;9.98;;;3.00;;
22334;SDS011;11335;43.848;25.958;2023-07-20T13:32:17;9.88;;;2.90;;
22334;SDS011;11335;43.848;25.958;2023-07-20T13:35:03;10.70;;;2.90;;
22334;SDS011;11335;43.848;25.958;2023-07-20T13:37:50;5.22;;;2.60;;
22334;SDS011;11335;43.848;25.958;2023-07-20T13:40:35;8.43;;;2.38;;
22334;SDS011;11335;43.848;25.958;2023-07-20T13:43:22;5.18;;;2.50;;
22334;SDS011;11335;43.848;25.958;2023-07-20T13:46:08;8.98;;;2.72;;
22334;SDS011;11335;43.848;25.958;2023-07-20T13:48:53;9.20;;;2.80;;
22334;SDS011;11335;43.848;25.958;2023-07-20T13:51:39;4.82;;;2.60;;
22334;SDS011;11335;43.848;25.958;2023-07-20T13:54:27;7.85;;;2.63;;
22334;SDS011;11335;43.848;25.958;2023-07-20T13:57:12;6.28;;;2.42;;
22334;SDS011;11335;43.848;25.958;2023-07-20T13:59:58;4.85;;;2.40;;
22334;SDS011;11335;43.848;25.958;2023-07-20T14:02:46;8.85;;;2.30;;
22334;SDS011;11335;43.848;25.958;2023-07-20T14:05:32;8.30;;;2.75;;
22334;SDS011;11335;43.848;25.958;2023-07-20T14:08:19;6.25;;;3.15;;
22334;SDS011;11335;43.848;25.958;2023-07-20T14:11:04;5.40;;;2.60;;
22334;SDS011;11335;43.848;25.958;2023-07-20T14:13:51;8.60;;;2.90;;
22334;SDS011;11335;43.848;25.958;2023-07-20T14:16:39;6.40;;;3.03;;
22334;SDS011;11335;43.848;25.958;2023-07-20T14:19:24;8.52;;;3.17;;
22334;SDS011;11335;43.848;25.958;2023-07-20T14:22:10;10.35;;;2.72;;
22334;SDS011;11335;43.848;25.958;2023-07-20T14:24:56;8.43;;;2.80;;
22334;SDS011;11335;43.848;25.958;2023-07-20T14:27:42;5.70;;;2.58;;
22334;SDS011;11335;43.848;25.958;2023-07-20T14:30:27;6.95;;;2.90;;
22334;SDS011;11335;43.848;25.958;2023-07-20T14:33:13;6.70;;;2.60;;
22334;SDS011;11335;43.848;25.958;2023-07-20T14:35:59;4.38;;;2.30;;
22334;SDS011;11335;43.848;25.958;2023-07-20T14:38:47;9.18;;;2.95;;
22334;SDS011;11335;43.848;25.958;2023-07-20T14:41:32;7.72;;;2.80;;
22334;SDS011;11335;43.848;25.958;2023-07-20T14:44:18;11.40;;;2.50;;
22334;SDS011;11335;43.848;25.958;2023-07-20T14:47:06;8.77;;;2.60;;
22334;SDS011;11335;43.848;25.958;2023-07-20T14:49:51;7.68;;;2.97;;
22334;SDS011;11335;43.848;25.958;2023-07-20T14:52:37;5.40;;;2.95;;
22334;SDS011;11335;43.848;25.958;2023-07-20T14:55:23;7.22;;;2.83;;
22334;SDS011;11335;43.848;25.958;2023-07-20T14:58:10;7.95;;;2.60;;
22334;SDS011;11335;43.848;25.958;2023-07-20T15:00:56;5.30;;;2.92;;
22334;SDS011;11335;43.848;25.958;2023-07-20T15:03:42;9.07;;;3.65;;
22334;SDS011;11335;43.848;25.958;2023-07-20T15:06:28;5.18;;;2.80;;
22334;SDS011;11335;43.848;25.958;2023-07-20T15:09:15;19.73;;;10.05;;
22334;SDS011;11335;43.848;25.958;2023-07-20T15:12:01;22.45;;;11.07;;
22334;SDS011;11335;43.848;25.958;2023-07-20T15:14:49;8.10;;;2.88;;
22334;SDS011;11335;43.848;25.958;2023-07-20T15:17:52;11.98;;;2.90;;
22334;SDS011;11335;43.848;25.958;2023-07-20T15:20:39;6.55;;;2.42;;
22334;SDS011;11335;43.848;25.958;2023-07-20T15:23:25;6.05;;;2.40;;
22334;SDS011;11335;43.848;25.958;2023-07-20T15:26:11;6.32;;;2.47;;
22334;SDS011;11335;43.848;25.958;2023-07-20T15:28:57;9.70;;;2.40;;
22334;SDS011;11335;43.848;25.958;2023-07-20T15:31:43;9.15;;;2.50;;
22334;SDS011;11335;43.848;25.958;2023-07-20T15:34:29;11.02;;;2.72;;
22334;SDS011;11335;43.848;25.958;2023-07-20T15:37:14;5.40;;;2.05;;
22334;SDS011;11335;43.848;25.958;2023-07-20T15:40:00;4.65;;;2.28;;
22334;SDS011;11335;43.848;25.958;2023-07-20T15:42:49;8.85;;;2.10;;
22334;SDS011;11335;43.848;25.958;2023-07-20T15:45:35;6.47;;;2.58;;
22334;SDS011;11335;43.848;25.958;2023-07-20T15:48:21;8.13;;;2.45;;
22334;SDS011;11335;43.848;25.958;2023-07-20T15:51:07;7.72;;;2.38;;
22334;SDS011;11335;43.848;25.958;2023-07-20T15:53:52;7.60;;;2.13;;
22334;SDS011;11335;43.848;25.958;2023-07-20T15:56:39;4.80;;;2.58;;
22334;SDS011;11335;43.848;25.958;2023-07-20T15:59:26;7.47;;;2.88;;
22334;SDS011;11335;43.848;25.958;2023-07-20T16:02:11;6.43;;;2.13;;
22334;SDS011;11335;43.848;25.958;2023-07-20T16:04:57;17.73;;;3.90;;
22334;SDS011;11335;43.848;25.958;2023-07-20T16:07:43;14.30;;;2.63;;
22334;SDS011;11335;43.848;25.958;2023-07-20T16:10:29;10.55;;;2.72;;
22334;SDS011;11335;43.848;25.958;2023-07-20T16:13:15;15.60;;;2.85;;
22334;SDS011;11335;43.848;25.958;2023-07-20T16:16:01;9.80;;;2.70;;
22334;SDS011;11335;43.848;25.958;2023-07-20T16:18:50;6.57;;;2.35;;
22334;SDS011;11335;43.848;25.958;2023-07-20T16:21:36;8.25;;;2.75;;
22334;SDS011;11335;43.848;25.958;2023-07-20T16:24:22;8.15;;;2.42;;
22334;SDS011;11335;43.848;25.958;2023-07-20T16:27:08;10.32;;;2.70;;
22334;SDS011;11335;43.848;25.958;2023-07-20T16:29:54;11.27;;;2.80;;
22334;SDS011;11335;43.848;25.958;2023-07-20T16:32:40;7.50;;;2.85;;
22334;SDS011;11335;43.848;25.958;2023-07-20T16:35:29;9.98;;;2.72;;
22334;SDS011;11335;43.848;25.958;2023-07-20T16:38:15;5.72;;;2.30;;
22334;SDS011;11335;43.848;25.958;2023-07-20T16:41:01;5.13;;;2.38;;